Flight Track Log - Related Links

Times and Time Zones

All times are in EDT time to prevent confusion due to time zone crossing. See the UAL4543 flight status page for this flight to view local times or setup timezone preferences in your user account.

Time Position Orientation Groundspeed Altitude Reporting Facility
EDT Latitude Longitude Course Direction KTS MPH feet Rate Location/Type
Tue 07:43:40 PM 40.6667 -74.1833 316° Northwest 155 178 800  Level New York TRACON
Tue 07:44:40 PM 40.6500 -74.2167 237° Southwest 216 249 2,600 2,650 Climbing New York TRACON
Tue 07:45:40 PM 40.7000 -74.2667 323° Northwest 261 300 6,100 3,400 Climbing New York TRACON
Tue 07:46:40 PM 40.7667 -74.3000 339° North 231 266 9,400 2,211 Climbing New York TRACON
Tue 07:47:00 PM 40.9641 -74.4923 319° Northwest  Level FlightAware Approximate
Tue 07:47:34 PM 40.8167 -74.3500 323° Northwest 266 306 10,300  Level New York TRACON
Tue 07:48:00 PM 41.0335 -74.5764 316° Northwest  Level FlightAware Approximate
Tue 07:48:34 PM 40.8833 -74.4333 317° Northwest 326 375 11,200  Level New York TRACON
Tue 07:49:34 PM 40.9500 -74.5000 323° Northwest 337 388 13,000 2,000 Climbing New York TRACON
Tue 07:50:46 PM 41.0394 -74.5922 322° Northwest 345 397 15,600 1,299 Climbing New York Center
Tue 07:52:00 PM 41.1295 -74.6833 North  Level FlightAware Approximate
Tue 07:53:48 PM 41.1919 -74.8242 301° West 277 319 18,500  Level New York Center
Tue 07:54:47 PM 41.2303 -74.9203 298° West 309 356 19,100 1,500 Climbing New York Center
Tue 07:55:48 PM 41.2786 -75.0253 302° West 328 377 21,500 2,218 Climbing New York Center
Tue 07:56:46 PM 41.3228 -75.1275 300° West 333 383 23,500 1,678 Climbing New York Center
Tue 07:57:46 PM 41.3669 -75.2272 301° West 327 376 24,800 893 Climbing New York Center
Tue 07:58:47 PM 41.4150 -75.3381 300° West 327 376 25,300 527 Climbing New York Center
Tue 07:59:00 PM 41.4495 -75.4321 301° West  Level FlightAware Approximate
Tue 08:00:00 PM 41.4683 -75.4731 288° West  Level FlightAware Approximate
Tue 08:00:48 PM 41.5050 -75.5853 288° West 362 417 26,400  Level New York Center
Tue 08:02:00 PM 41.5333 -75.7291 270° West  Level FlightAware Approximate
Tue 08:02:47 PM 41.5778 -75.8400 270° West 368 423 28,400  Level New York Center
Tue 08:03:48 PM 41.6158 -75.9678 292° West 368 423 29,600 1,300 Climbing New York Center
Tue 08:04:47 PM 41.6481 -76.0925 289° West 373 429 31,000 1,613 Climbing New York Center
Tue 08:05:47 PM 41.6858 -76.2233 291° West 362 417 32,800 1,678 Climbing New York Center
Tue 08:06:45 PM 41.7181 -76.3372 291° West 346 398 34,300 1,261 Climbing New York Center
Tue 08:07:46 PM 41.7503 -76.4483 291° West 334 384 35,300 836 Climbing New York Center
Tue 08:08:47 PM 41.7747 -76.5450 289° West 329 379 36,000 261 Climbing New York Center
Tue 08:10:27 PM 41.8361 -76.7619 291° West 347 399 36,000  Level Cleveland Center
Tue 08:11:27 PM 41.8714 -76.8881 291° West 352 405 36,000  Level Cleveland Center
Tue 08:12:27 PM 41.9067 -77.0172 290° West 363 418 36,000  Level Cleveland Center
Tue 08:13:27 PM 41.9397 -77.1439 289° West 363 418 36,000  Level Cleveland Center
Tue 08:14:27 PM 41.9772 -77.2786 291° West 368 423 36,000  Level Cleveland Center
Tue 08:15:27 PM 42.0119 -77.4083 290° West 368 423 36,000  Level Cleveland Center
Tue 08:16:27 PM 42.0400 -77.5133 290° West 368 423 36,000  Level Cleveland Center
Tue 08:17:27 PM 42.0747 -77.6514 289° West 368 423 36,000  Level Cleveland Center
Tue 08:18:27 PM 42.1094 -77.7814 290° West 363 418 36,000  Level Cleveland Center
Tue 08:19:27 PM 42.1436 -77.9086 290° West 363 418 36,000  Level Cleveland Center
Tue 08:20:27 PM 42.1736 -78.0336 288° West 358 412 36,000  Level Cleveland Center
Tue 08:21:27 PM 42.2097 -78.1611 291° West 358 412 36,000  Level Cleveland Center
Tue 08:22:27 PM 42.2414 -78.2889 289° West 358 412 36,000  Level Cleveland Center
Tue 08:23:27 PM 42.2731 -78.4139 289° West 358 412 36,000  Level Cleveland Center
Tue 08:24:27 PM 42.3067 -78.5364 290° West 358 412 36,000  Level Cleveland Center
Tue 08:25:27 PM 42.3400 -78.6647 289° West 358 412 36,000  Level Cleveland Center
Tue 08:26:27 PM 42.3692 -78.7903 287° West 358 412 36,000  Level Cleveland Center
Tue 08:27:27 PM 42.4044 -78.9269 289° West 358 412 36,000  Level Cleveland Center
Tue 08:28:27 PM 42.4356 -79.0500 289° West 358 412 36,000  Level Cleveland Center
Tue 08:29:27 PM 42.4639 -79.1619 289° West 358 412 36,000  Level Cleveland Center
Tue 08:30:27 PM 42.4925 -79.2908 287° West 358 412 36,000  Level Cleveland Center
Tue 08:31:27 PM 42.5003 -79.4200 275° West 353 406 36,000  Level Cleveland Center
Tue 08:32:27 PM 42.5036 -79.5467 272° West 353 406 36,000  Level Cleveland Center
Tue 08:33:27 PM 42.5131 -79.6789 276° West 347 399 36,000  Level Cleveland Center
Tue 08:34:27 PM 42.5200 -79.8056 274° West 347 399 36,000  Level Cleveland Center
Tue 08:35:27 PM 42.5250 -79.9353 273° West 347 399 36,000  Level Cleveland Center
Tue 08:36:27 PM 42.5278 -80.0675 272° West 347 399 36,000  Level Cleveland Center
Tue 08:37:27 PM 42.5325 -80.1972 273° West 347 399 36,000  Level Cleveland Center
Tue 08:38:27 PM 42.5392 -80.3297 274° West 347 399 36,000  Level Cleveland Center
Tue 08:39:27 PM 42.5436 -80.4592 273° West 347 399 36,000  Level Cleveland Center
Tue 08:40:27 PM 42.5478 -80.5917 272° West 347 399 36,000  Level Cleveland Center
Tue 08:41:27 PM 42.5561 -80.7353 275° West 347 399 36,000  Level Cleveland Center
Tue 08:42:27 PM 42.5578 -80.8708 271° West 348 400 36,000  Level Cleveland Center
Tue 08:43:27 PM 42.5658 -81.0033 275° West 353 406 36,000  Level Cleveland Center
Tue 08:44:27 PM 42.5694 -81.1386 272° West 360 414 36,000  Level Cleveland Center
Tue 08:45:27 PM 42.5728 -81.2711 272° West 360 414 36,000  Level Cleveland Center
Tue 08:46:27 PM 42.5781 -81.4092 273° West 366 421 36,000  Level Cleveland Center
Tue 08:47:27 PM 42.5981 -81.5394 282° West 360 414 36,000  Level Cleveland Center
Tue 08:48:27 PM 42.6217 -81.6750 283° West 366 421 36,000  Level Cleveland Center
Tue 08:49:27 PM 42.6456 -81.8053 284° West 366 421 36,000  Level Cleveland Center
Tue 08:50:27 PM 42.6689 -81.9414 283° West 366 421 36,000  Level Cleveland Center
Tue 08:51:27 PM 42.6903 -82.0747 282° West 366 421 36,000  Level Cleveland Center
Tue 08:52:27 PM 42.7133 -82.2081 283° West 366 421 36,000  Level Cleveland Center
Tue 08:53:27 PM 42.7364 -82.3414 283° West 371 427 36,000  Level Cleveland Center
Tue 08:54:27 PM 42.7594 -82.4750 283° West 371 427 36,000  Level Cleveland Center
Tue 08:55:27 PM 42.7819 -82.6114 283° West 371 427 36,000  Level Cleveland Center
Tue 08:56:27 PM 42.8028 -82.7394 283° West 365 420 36,000  Level Cleveland Center
Tue 08:57:27 PM 42.8272 -82.8733 284° West 365 420 36,000  Level Cleveland Center
Tue 08:58:27 PM 42.8472 -83.0072 282° West 360 414 36,000  Level Cleveland Center
Tue 08:59:27 PM 42.8694 -83.1414 283° West 360 414 36,000  Level Cleveland Center
Tue 09:00:27 PM 42.8894 -83.2753 282° West 360 414 36,000  Level Cleveland Center
Tue 09:01:27 PM 42.9131 -83.4125 283° West 360 414 36,000  Level Cleveland Center
Tue 09:02:27 PM 42.9331 -83.5381 282° West 369 425 36,000  Level Cleveland Center
Tue 09:03:27 PM 42.9564 -83.6811 283° West 380 437 36,000  Level Cleveland Center
Tue 09:04:27 PM 42.9733 -83.8211 279° West 380 437 36,000  Level Cleveland Center
Tue 09:05:27 PM 42.9861 -83.9608 277° West 380 437 36,000  Level Cleveland Center
Tue 09:06:27 PM 42.9881 -84.1028 271° West 374 430 36,000  Level Cleveland Center
Tue 09:07:27 PM 42.9794 -84.2414 265° West 369 425 36,000  Level Cleveland Center
Tue 09:09:08 PM 42.9672 -84.4719 266° West 369 425 36,000  Level Chicago Center
Tue 09:10:09 PM 42.9575 -84.6117 265° West 369 425 36,000  Level Chicago Center
Tue 09:11:11 PM 42.9494 -84.7519 266° West 373 429 36,000  Level Chicago Center
Tue 09:12:13 PM 42.9378 -84.9206 265° West 374 430 36,000  Level Chicago Center
Tue 09:13:15 PM 42.9278 -85.0617 265° West 374 430 36,000  Level Chicago Center
Tue 09:14:17 PM 42.9189 -85.2031 265° West 374 430 36,000  Level Chicago Center
Tue 09:15:18 PM 42.9083 -85.3444 264° West 375 432 36,000  Level Chicago Center
Tue 09:16:20 PM 42.8981 -85.4858 264° West 375 432 36,000  Level Chicago Center
Tue 09:17:22 PM 42.8881 -85.6275 265° West 375 432 36,000  Level Chicago Center
Tue 09:18:24 PM 42.8772 -85.7697 264° West 375 432 36,000  Level Chicago Center
Tue 09:19:26 PM 42.8667 -85.9139 264° West 377 434 36,000  Level Chicago Center
Tue 09:20:27 PM 42.8558 -86.0575 264° West 376 433 36,000  Level Chicago Center
Tue 09:21:29 PM 42.8431 -86.2286 264° West 375 432 36,000  Level Chicago Center
Tue 09:22:31 PM 42.8317 -86.3714 264° West 377 434 36,000  Level Chicago Center
Tue 09:23:32 PM 42.8203 -86.5133 264° West 377 434 36,000  Level Chicago Center
Tue 09:24:34 PM 42.8083 -86.6558 264° West 379 436 36,000  Level Chicago Center
Tue 09:25:36 PM 42.7967 -86.7989 264° West 381 438 36,000  Level Chicago Center
Tue 09:26:37 PM 42.7833 -86.9394 263° West 378 435 36,000  Level Chicago Center
Tue 09:27:39 PM 42.7722 -87.0817 264° West 377 434 36,000  Level Chicago Center
Tue 09:28:40 PM 42.7597 -87.2236 263° West 377 434 36,000  Level Chicago Center
Tue 09:29:42 PM 42.7453 -87.3931 263° West 374 430 36,000  Level Chicago Center
Tue 09:30:44 PM 42.7319 -87.5269 262° West 376 433 36,000  Level Chicago Center
Tue 09:31:45 PM 42.7203 -87.6675 264° West 375 432 36,000  Level Chicago Center
Tue 09:32:47 PM 42.7078 -87.8092 263° West 376 433 36,000  Level Chicago Center
Tue 09:33:48 PM 42.6944 -87.9489 263° West 373 429 36,000  Level Chicago Center
Tue 09:34:50 PM 42.6781 -88.1128 262° West 372 428 36,000  Level Chicago Center
Tue 09:35:51 PM 42.6658 -88.2517 263° West 369 425 36,000  Level Chicago Center
Tue 09:36:53 PM 42.6511 -88.3939 262° West 376 433 36,000  Level Chicago Center
Tue 09:37:54 PM 42.6375 -88.5364 263° West 379 436 36,000  Level Chicago Center
Tue 09:38:56 PM 42.6233 -88.6789 262° West 379 436 36,000  Level Chicago Center
Tue 09:39:57 PM 42.6089 -88.8217 262° West 379 436 36,000  Level Chicago Center
Tue 09:40:59 PM 42.5953 -88.9631 263° West 377 434 36,000  Level Chicago Center
Tue 09:42:00 PM 42.5803 -89.1033 262° West 375 432 36,000  Level Chicago Center
Tue 09:43:02 PM 42.5661 -89.2408 262° West 370 426 36,000  Level Chicago Center
Tue 09:44:03 PM 42.5492 -89.3997 262° West 367 422 36,000  Level Chicago Center
Tue 09:45:04 PM 42.5336 -89.5367 261° West 367 422 36,000  Level Chicago Center
Tue 09:46:06 PM 42.5139 -89.6725 259° West 369 425 36,000 -98 Level Chicago Center
Tue 09:47:07 PM 42.4839 -89.8031 253° West 364 419 35,800 -787 Descending Chicago Center
Tue 09:48:08 PM 42.4564 -89.9261 253° West 367 422 34,400 -1,317 Descending Chicago Center
Tue 09:49:10 PM 42.4253 -90.0600 253° West 374 430 33,100 -683 Descending Chicago Center
Tue 09:50:11 PM 42.3944 -90.1928 253° West 374 430 33,000 -49 Descending Chicago Center
Tue 09:51:12 PM 42.3569 -90.3528 252° West 375 432 33,000  Level Chicago Center
Tue 09:52:14 PM 42.3275 -90.4897 254° West 381 438 33,000  Level Chicago Center
Tue 09:53:15 PM 42.2950 -90.6250 252° West 382 440 33,000  Level Chicago Center
Tue 09:54:16 PM 42.2631 -90.7611 252° West 382 440 33,000  Level Chicago Center
Tue 09:55:18 PM 42.2311 -90.8950 252° West 378 435 33,000 -244 Level Chicago Center
Tue 09:56:19 PM 42.1986 -91.0311 252° West 381 438 32,500 -984 Descending Chicago Center
Tue 09:57:20 PM 42.1661 -91.1644 252° West 377 434 31,000 -1,610 Descending Chicago Center
Tue 09:58:22 PM 42.1339 -91.3028 253° West 385 443 29,200 -2,190 Descending Chicago Center
Tue 09:59:26 PM 42.0931 -91.4711 252° West 393 452 26,400 -2,352 Descending Chicago Center
Tue 10:00:27 PM 42.0589 -91.6092 252° West 391 450 24,300 -1,171 Descending Chicago Center
Tue 10:01:29 PM 42.0261 -91.7436 252° West 385 443 24,000 -439 Descending Chicago Center
Tue 10:02:30 PM 41.9933 -91.8756 252° West 377 434 23,400 -1,230 Descending Chicago Center
Tue 10:03:31 PM 41.9603 -92.0089 252° West 375 432 21,500 -1,902 Descending Chicago Center
Tue 10:04:33 PM 41.9289 -92.1367 252° West 368 423 19,500 -2,000 Descending Chicago Center
Tue 10:05:34 PM 41.8908 -92.2883 251° West 360 414 17,400 -2,000 Descending Chicago Center
Tue 10:06:36 PM 41.8606 -92.4114 252° West 352 405 15,400 -1,951 Descending Chicago Center
Tue 10:07:37 PM 41.8300 -92.5306 251° West 344 396 13,400 -2,018 Descending Chicago Center
Tue 10:08:26 PM 41.8019 -92.6375 251° West 333 383 11,700 -1,309 Descending Minneapolis Center
Tue 10:09:27 PM 41.7719 -92.7544 251° West 332 382 11,000 -590 Descending Minneapolis Center
Tue 10:10:28 PM 41.7433 -92.8667 251° West 320 368 10,500 -934 Descending Minneapolis Center
Tue 10:11:29 PM 41.7203 -92.9606 252° West 270 311 9,100 -1,650 Descending Minneapolis Center
Tue 10:11:48 PM 41.7164 -92.9781 253° West 269 310 8,300 -1,562 Descending Minneapolis Center
Tue 10:12:42 PM 41.6953 -93.0511 249° West 260 299 7,200 -1,304 Descending Minneapolis Center
Tue 10:13:43 PM 41.6567 -93.1658 246° West 274 315 5,800 -1,266 Descending Minneapolis Center
Tue 10:14:50 PM 41.6242 -93.2661 247° West 278 320 4,500 -1,033 Descending Minneapolis Center
Tue 10:15:45 PM 41.5875 -93.3597 242° Southwest 278 320 3,700 -776 Descending Minneapolis Center
Tue 10:16:46 PM 41.5553 -93.4500 245° Southwest 272 313 3,000 -378 Descending Minneapolis Center
Tue 10:17:52 PM 41.5233 -93.5236 240° Southwest 247 284 2,900 49 Descending Minneapolis Center
Tue 10:18:48 PM 41.4806 -93.6033 234° Southwest 248 285 3,100  Climbing Minneapolis Center
Tue 10:19:47 PM 41.4472 -93.6669 235° Southwest 232 267 2,900 -105 Descending Minneapolis Center
Tue 10:20:42 PM 41.4208 -93.7222 238° Southwest 209 241 2,900  Level Minneapolis Center
Tue 10:21:42 PM 41.4567 -93.7689 316° Northwest 185 213 2,900 -261 Level Minneapolis Center
Tue 10:22:37 PM 41.4850 -93.7497 27° Northeast 135 155 2,400 -429 Descending Minneapolis Center
Tue 10:22:52 PM 41.4850 -93.7467 90° East 129 148 2,400 -600 Level Minneapolis Center
Tue 10:23:37 PM 41.5061 -93.7144 49° Northeast 124 143 1,800 -600 Descending Minneapolis Center
Tue 10:23:52 PM 41.5008 -93.7183 209° Southwest 124 143 1,800  Level Minneapolis Center

Login

Don't have an account? Register now (free) for customized features, flight alerts, and more!